Time;durP1;ratioP1;P1;durP2;ratioP2;P2;SDS_P1;SDS_P2;PMS_P1;PMS_P2;Temp;Humidity;BMP_temperature;BMP_pressure;BME280_temperature;BME280_humidity;BME280_pressure;Samples;Min_cycle;Max_cycle;Signal;HPM_P1;HPM_P2
2022/05/05 00:00:00;;;;;;;;;;;;;;;27.97;26.72;100972.06;5045202;28;1188;-30
2022/05/05 00:02:25;;;;;;;;;;;;;;;28.33;26.03;100975.09;5056177;28;802;-32
2022/05/05 00:04:50;;;;;;;;;;;;;;;27.83;26.35;100976.38;5065270;28;1981;-30
2022/05/05 00:07:16;;;;;;;;;;;;;;;27.52;27.00;100966.47;5075400;28;786;-34
2022/05/05 00:09:42;;;;;;;;;;;;;;;27.44;26.87;100972.78;5057283;28;802;-31
2022/05/05 00:14:51;;;;;;;;;;;;;;;28.38;26.04;100972.66;5071005;28;605;-32
2022/05/05 00:17:16;;;;;;;;;;;;;;;28.66;25.29;100977.41;5075284;28;822;-33
2022/05/05 00:19:42;;;;;;;;;;;;;;;27.64;26.51;100977.72;5073628;28;1449;-30
2022/05/05 00:22:07;;;;;;;;;;;;;;;27.55;26.87;100967.97;5056083;28;801;-34
2022/05/05 00:24:33;;;;;;;;;;;;;;;27.43;27.03;100979.19;5064856;28;1902;-32
2022/05/05 00:26:58;;;;;;;;;;;;;;;27.43;27.10;100975.66;5056539;28;869;-32
2022/05/05 00:29:23;;;;;;;;;;;;;;;27.31;27.43;100975.25;5055901;28;818;-32
2022/05/05 00:31:49;;;;;;;;;;;;;;;27.29;27.24;100978.13;5055758;28;1113;-32
2022/05/05 00:34:14;;;;;;;;;;;;;;;27.23;27.76;100984.22;5059000;28;1002;-31
2022/05/05 00:36:39;;;;;;;;;;;;;;;27.07;27.78;100979.75;5064325;28;798;-32
2022/05/05 00:39:05;;;;;;;;;;;;;;;27.04;27.61;100978.28;5071974;28;887;-30
2022/05/05 00:41:34;;;;;;;;;;;;;;;27.01;27.97;100975.88;5074385;28;825;-32
2022/05/05 00:43:59;;;;;;;;;;;;;;;27.01;27.61;100983.97;5074890;28;1898;-31
2022/05/05 00:46:24;;;;;;;;;;;;;;;27.15;27.92;100982.41;5057294;28;770;-30
2022/05/05 00:48:50;;;;;;;;;;;;;;;27.96;26.78;100985.75;5073176;28;986;-30
2022/05/05 00:51:16;;;;;;;;;;;;;;;28.51;25.38;100987.41;5065666;28;966;-34
2022/05/05 00:53:41;;;;;;;;;;;;;;;27.47;26.66;100993.19;5058045;28;798;-34
2022/05/05 00:56:07;;;;;;;;;;;;;;;27.35;26.89;100984.66;5059144;28;752;-30
2022/05/05 00:58:32;;;;;;;;;;;;;;;27.24;27.15;100986.75;5061716;28;962;-32
2022/05/05 01:00:58;;;;;;;;;;;;;;;27.82;26.53;100987.38;5074722;28;1039;-30
2022/05/05 01:03:23;;;;;;;;;;;;;;;28.21;25.86;100999.84;5047618;28;1898;-31
2022/05/05 01:05:49;;;;;;;;;;;;;;;28.48;25.77;100994.03;5067991;28;864;-32
2022/05/05 01:08:14;;;;;;;;;;;;;;;27.75;26.31;100998.06;5058667;28;812;-32
2022/05/05 01:10:39;;;;;;;;;;;;;;;27.51;26.80;101003.47;5058713;28;834;-32
2022/05/05 01:13:05;;;;;;;;;;;;;;;27.39;26.85;100999.50;5058995;28;782;-32
2022/05/05 01:15:30;;;;;;;;;;;;;;;27.47;26.98;100994.03;5063785;28;816;-33
2022/05/05 01:17:56;;;;;;;;;;;;;;;28.35;26.11;101003.66;5060134;28;801;-29
2022/05/05 01:20:22;;;;;;;;;;;;;;;28.75;25.48;101001.66;5067901;28;940;-30
2022/05/05 01:22:47;;;;;;;;;;;;;;;27.64;27.04;100996.63;5058297;28;909;-29
2022/05/05 01:28:11;;;;;;;;;;;;;;;27.41;26.98;101002.03;5064120;28;797;-33
2022/05/05 01:30:39;;;;;;;;;;;;;;;27.29;27.26;100996.19;5063943;28;881;-34
2022/05/05 01:33:15;;;;;;;;;;;;;;;27.72;26.85;100999.28;5058130;28;835;-34
2022/05/05 01:35:41;;;;;;;;;;;;;;;27.96;26.54;100996.56;5067089;28;842;-32
2022/05/05 01:38:07;;;;;;;;;;;;;;;28.39;25.84;100998.72;5077201;28;853;-31
2022/05/05 01:40:33;;;;;;;;;;;;;;;27.84;26.55;101005.09;5073283;28;818;-32
2022/05/05 01:42:58;;;;;;;;;;;;;;;27.56;27.12;101012.91;5063466;28;719;-32
2022/05/05 01:45:24;;;;;;;;;;;;;;;27.49;27.01;101013.59;5058690;28;1969;-31
2022/05/05 01:47:49;;;;;;;;;;;;;;;27.45;27.05;101017.69;5057752;28;916;-31
2022/05/05 01:50:14;;;;;;;;;;;;;;;27.36;27.24;101008.78;5065317;28;831;-31
2022/05/05 01:52:39;;;;;;;;;;;;;;;27.33;27.28;101005.59;5057960;28;1343;-34
2022/05/05 01:55:05;;;;;;;;;;;;;;;27.15;27.34;101006.72;5064454;28;931;-33
2022/05/05 01:57:30;;;;;;;;;;;;;;;27.21;27.46;100997.09;5057644;28;842;-31
2022/05/05 01:59:56;;;;;;;;;;;;;;;27.03;27.62;100998.16;5048677;28;1029;-30
2022/05/05 02:02:21;;;;;;;;;;;;;;;27.06;27.54;101007.78;5057786;28;826;-31
2022/05/05 02:04:46;;;;;;;;;;;;;;;27.24;27.35;101010.22;5061360;28;1965;-32
2022/05/05 02:07:11;;;;;;;;;;;;;;;27.37;27.38;101012.34;5066025;28;822;-31
2022/05/05 02:09:37;;;;;;;;;;;;;;;27.94;26.65;101023.78;5057679;28;905;-29
2022/05/05 02:12:03;;;;;;;;;;;;;;;28.53;25.86;101036.78;5057637;28;735;-33
2022/05/05 02:14:28;;;;;;;;;;;;;;;27.60;26.88;101033.13;5058224;28;913;-34
2022/05/05 02:16:54;;;;;;;;;;;;;;;27.43;27.28;101027.81;5057420;28;857;-33
2022/05/05 02:19:19;;;;;;;;;;;;;;;27.34;27.12;101029.72;5063816;28;778;-35
2022/05/05 02:21:44;;;;;;;;;;;;;;;28.08;26.67;101023.97;5064073;28;853;-31
2022/05/05 02:24:09;;;;;;;;;;;;;;;28.66;25.63;101028.00;5077081;28;1955;-32
2022/05/05 02:26:35;;;;;;;;;;;;;;;27.58;26.89;101019.78;5076417;28;890;-30
2022/05/05 02:29:02;;;;;;;;;;;;;;;27.40;27.61;101022.78;5076861;28;848;-31
2022/05/05 02:31:27;;;;;;;;;;;;;;;27.33;27.34;101016.41;5071642;28;1507;-31
2022/05/05 02:33:52;;;;;;;;;;;;;;;27.24;27.55;101029.94;5063390;28;833;-31
2022/05/05 02:39:01;;;;;;;;;;;;;;;27.70;27.00;101022.09;5056977;28;643;-32
2022/05/05 02:41:27;;;;;;;;;;;;;;;27.85;26.84;101014.03;5057557;28;901;-32
2022/05/05 02:43:52;;;;;;;;;;;;;;;28.28;26.45;101020.78;5058311;28;1960;-32
2022/05/05 02:46:17;;;;;;;;;;;;;;;28.01;26.36;101028.47;5075993;28;1000;-31
2022/05/05 02:48:42;;;;;;;;;;;;;;;27.55;26.71;101032.81;5076104;28;817;-31
2022/05/05 02:51:08;;;;;;;;;;;;;;;27.42;26.76;101036.13;5063576;28;812;-31
2022/05/05 02:56:17;;;;;;;;;;;;;;;28.34;26.00;101039.81;5071738;28;600;-31
2022/05/05 02:58:42;;;;;;;;;;;;;;;28.70;25.62;101038.28;5066477;28;852;-32
2022/05/05 03:01:08;;;;;;;;;;;;;;;27.62;27.12;101036.50;5062652;28;1067;-31
2022/05/05 03:03:34;;;;;;;;;;;;;;;27.66;27.13;101043.22;5075981;28;1971;-32
2022/05/05 03:05:59;;;;;;;;;;;;;;;28.59;25.85;101049.56;5064060;28;959;-35
2022/05/05 03:08:24;;;;;;;;;;;;;;;27.95;26.76;101043.53;5056883;28;892;-30
2022/05/05 03:10:50;;;;;;;;;;;;;;;27.57;27.15;101053.25;5062693;28;1037;-35
2022/05/05 03:13:15;;;;;;;;;;;;;;;27.45;27.50;101058.22;5056640;28;994;-30
2022/05/05 03:15:40;;;;;;;;;;;;;;;27.36;27.53;101062.00;5056639;28;755;-35
2022/05/05 03:18:06;;;;;;;;;;;;;;;27.39;27.73;101064.34;5056376;28;805;-31
2022/05/05 03:20:31;;;;;;;;;;;;;;;27.80;27.06;101067.81;5063414;28;866;-34
2022/05/05 03:22:56;;;;;;;;;;;;;;;27.93;26.88;101067.19;5060921;28;883;-34
2022/05/05 03:25:21;;;;;;;;;;;;;;;28.46;25.85;101067.28;5058077;28;1906;-33
2022/05/05 03:27:47;;;;;;;;;;;;;;;27.77;26.06;101066.31;5056152;28;896;-31
2022/05/05 03:30:12;;;;;;;;;;;;;;;27.43;26.93;101065.66;5056679;28;1178;-34
2022/05/05 03:32:37;;;;;;;;;;;;;;;27.27;27.01;101074.69;5073671;28;1216;-35
2022/05/05 03:35:03;;;;;;;;;;;;;;;27.44;27.16;101072.75;5072358;28;857;-33
2022/05/05 03:37:28;;;;;;;;;;;;;;;28.36;26.20;101064.03;5060109;28;803;-33
2022/05/05 03:39:54;;;;;;;;;;;;;;;27.01;24.41;101073.94;5057007;28;799;-33
2022/05/05 03:42:19;;;;;;;;;;;;;;;26.51;24.76;101071.34;5056432;28;858;-34
2022/05/05 03:44:44;;;;;;;;;;;;;;;27.72;25.02;101066.03;5056665;28;1955;-32
2022/05/05 03:47:09;;;;;;;;;;;;;;;27.80;24.38;101062.41;5056125;28;937;-29
2022/05/05 03:49:35;;;;;;;;;;;;;;;27.10;23.89;101069.34;5062986;28;1078;-31
2022/05/05 03:52:00;;;;;;;;;;;;;;;26.31;24.96;101072.69;5062402;28;786;-32
2022/05/05 03:54:26;;;;;;;;;;;;;;;26.70;24.58;101076.53;5055638;28;974;-31
2022/05/05 03:56:51;;;;;;;;;;;;;;;25.42;26.02;101074.91;5074995;28;754;-29
2022/05/05 03:59:16;;;;;;;;;;;;;;;25.49;25.70;101088.56;5066527;28;1460;-33
2022/05/05 04:01:42;;;;;;;;;;;;;;;26.93;24.08;101092.84;5061632;28;1101;-31
2022/05/05 04:04:07;;;;;;;;;;;;;;;26.75;23.95;101084.97;5055828;28;1956;-31
2022/05/05 04:06:32;;;;;;;;;;;;;;;27.05;23.79;101097.88;5073989;28;767;-33
2022/05/05 04:08:58;;;;;;;;;;;;;;;28.25;22.37;101095.00;5075051;28;857;-33
2022/05/05 04:11:23;;;;;;;;;;;;;;;21.82;31.51;101088.06;5075316;28;778;-27
2022/05/05 04:13:49;;;;;;;;;;;;;;;23.34;29.45;101087.53;5051472;28;1068;-30
2022/05/05 04:16:14;;;;;;;;;;;;;;;20.72;34.30;101085.06;5058542;28;786;-27
2022/05/05 04:18:40;;;;;;;;;;;;;;;20.40;34.65;101087.66;5056040;28;810;-27
2022/05/05 04:21:05;;;;;;;;;;;;;;;22.96;30.08;101095.59;5071446;28;1022;-28
2022/05/05 04:23:30;;;;;;;;;;;;;;;24.06;28.63;101099.41;5074976;28;1947;-28
2022/05/05 04:25:55;;;;;;;;;;;;;;;24.42;28.18;101107.47;5075144;28;803;-32
2022/05/05 04:28:21;;;;;;;;;;;;;;;24.41;28.45;101107.63;5063023;28;825;-30
2022/05/05 04:30:46;;;;;;;;;;;;;;;24.64;27.93;101115.22;5059291;28;1057;-27
2022/05/05 04:33:12;;;;;;;;;;;;;;;24.58;28.47;101117.53;5059846;28;742;-31
2022/05/05 04:35:37;;;;;;;;;;;;;;;24.58;28.15;101125.59;5072709;28;1045;-29
2022/05/05 04:38:03;;;;;;;;;;;;;;;24.46;28.57;101129.50;5078755;28;790;-29
2022/05/05 04:40:28;;;;;;;;;;;;;;;24.38;28.64;101130.31;5071471;28;1119;-29
2022/05/05 04:42:53;;;;;;;;;;;;;;;24.26;28.69;101127.00;5059537;28;973;-27
2022/05/05 04:45:19;;;;;;;;;;;;;;;24.25;28.84;101137.91;5059070;28;1902;-27
2022/05/05 04:47:44;;;;;;;;;;;;;;;24.14;28.64;101138.97;5059324;28;814;-29
2022/05/05 04:50:09;;;;;;;;;;;;;;;23.23;30.57;101144.94;5070108;28;897;-30
2022/05/05 04:52:35;;;;;;;;;;;;;;;23.48;30.06;101137.25;5071580;28;834;-28
2022/05/05 04:55:00;;;;;;;;;;;;;;;23.75;29.76;101146.28;5078538;28;787;-31
2022/05/05 04:57:25;;;;;;;;;;;;;;;23.21;30.75;101146.91;5078107;28;786;-29
2022/05/05 04:59:51;;;;;;;;;;;;;;;22.63;31.32;101153.16;5064781;28;1183;-28
2022/05/05 05:02:16;;;;;;;;;;;;;;;23.09;31.11;101154.28;5059192;28;751;-30
2022/05/05 05:04:42;;;;;;;;;;;;;;;24.03;29.53;101156.16;5061787;28;1917;-31
2022/05/05 05:07:07;;;;;;;;;;;;;;;24.34;28.15;101156.66;5078258;28;898;-33
2022/05/05 05:09:32;;;;;;;;;;;;;;;25.69;26.94;101164.63;5078332;28;738;-34
2022/05/05 05:11:57;;;;;;;;;;;;;;;26.15;26.48;101160.66;5077911;28;878;-32
2022/05/05 05:14:23;;;;;;;;;;;;;;;26.63;25.98;101165.41;5078039;28;849;-32
2022/05/05 05:16:48;;;;;;;;;;;;;;;27.81;24.24;101166.84;5073407;28;969;-31
2022/05/05 05:19:13;;;;;;;;;;;;;;;28.25;23.59;101162.63;5068025;28;978;-32
2022/05/05 05:21:39;;;;;;;;;;;;;;;28.47;23.59;101170.97;5069233;28;1346;-33
2022/05/05 05:24:04;;;;;;;;;;;;;;;28.61;23.90;101163.91;5046439;28;1902;-32
2022/05/05 05:26:29;;;;;;;;;;;;;;;26.48;25.87;101171.50;5061426;28;807;-31
2022/05/05 05:28:55;;;;;;;;;;;;;;;25.91;26.73;101168.53;5064798;28;825;-35
2022/05/05 05:31:21;;;;;;;;;;;;;;;25.71;27.29;101170.66;5065059;28;985;-31
2022/05/05 05:33:47;;;;;;;;;;;;;;;25.75;27.08;101171.19;5070282;28;929;-33
2022/05/05 05:36:12;;;;;;;;;;;;;;;25.87;27.07;101174.41;5058354;28;803;-32
2022/05/05 05:38:37;;;;;;;;;;;;;;;26.04;26.60;101176.13;5057669;28;807;-32
2022/05/05 05:41:03;;;;;;;;;;;;;;;25.64;26.83;101177.72;5057537;28;831;-34
2022/05/05 05:43:28;;;;;;;;;;;;;;;25.54;26.78;101177.81;5064544;28;1969;-34
2022/05/05 05:45:53;;;;;;;;;;;;;;;25.50;26.48;101176.44;5058204;28;762;-33
2022/05/05 05:48:19;;;;;;;;;;;;;;;25.70;26.84;101184.28;5065665;28;1289;-34
2022/05/05 05:50:44;;;;;;;;;;;;;;;25.56;27.05;101190.09;5076513;28;1069;-33
2022/05/05 05:53:09;;;;;;;;;;;;;;;25.60;27.08;101184.41;5074076;28;1456;-33
2022/05/05 05:55:35;;;;;;;;;;;;;;;25.39;27.17;101183.78;5067965;28;1427;-31
2022/05/05 05:58:00;;;;;;;;;;;;;;;25.66;27.88;101194.53;5070820;28;809;-30
2022/05/05 06:00:26;;;;;;;;;;;;;;;26.85;25.53;101196.28;5068746;28;1231;-35
2022/05/05 06:05:35;;;;;;;;;;;;;;;26.49;25.84;101197.47;5064841;28;1968;-31
2022/05/05 06:08:00;;;;;;;;;;;;;;;26.14;25.68;101196.72;5058519;28;1318;-33
2022/05/05 06:10:26;;;;;;;;;;;;;;;26.10;25.88;101200.75;5070353;28;1125;-33
2022/05/05 06:12:51;;;;;;;;;;;;;;;26.18;26.11;101203.47;5070080;28;1386;-31
2022/05/05 06:15:17;;;;;;;;;;;;;;;25.95;25.94;101205.94;5069149;28;1160;-33
2022/05/05 06:17:42;;;;;;;;;;;;;;;26.23;25.68;101208.34;5077016;28;774;-35
2022/05/05 06:20:08;;;;;;;;;;;;;;;27.15;24.72;101211.97;5065671;28;834;-33
2022/05/05 06:22:34;;;;;;;;;;;;;;;26.39;25.67;101218.38;5071064;28;845;-33
2022/05/05 06:25:00;;;;;;;;;;;;;;;26.48;25.97;101216.50;5076839;28;1955;-36
2022/05/05 06:27:25;;;;;;;;;;;;;;;27.13;25.24;101222.06;5068887;28;1076;-34
2022/05/05 06:29:50;;;;;;;;;;;;;;;26.57;25.74;101220.91;5065387;28;1485;-39
2022/05/05 06:32:17;;;;;;;;;;;;;;;26.50;26.22;101215.34;5069221;28;739;-29
2022/05/05 06:34:42;;;;;;;;;;;;;;;26.38;26.58;101213.97;5072490;28;897;-31
2022/05/05 06:37:08;;;;;;;;;;;;;;;26.32;26.93;101220.88;5057298;28;828;-32
2022/05/05 06:39:33;;;;;;;;;;;;;;;26.40;26.46;101220.91;5065043;28;1080;-33
2022/05/05 06:41:59;;;;;;;;;;;;;;;26.20;26.29;101222.19;5075295;28;969;-35
2022/05/05 06:44:24;;;;;;;;;;;;;;;26.33;26.89;101214.47;5076129;28;1902;-35
2022/05/05 06:46:50;;;;;;;;;;;;;;;26.59;26.77;101218.88;5062895;28;845;-31
2022/05/05 06:49:17;;;;;;;;;;;;;;;27.66;25.14;101224.28;5059371;28;865;-31
2022/05/05 06:51:42;;;;;;;;;;;;;;;27.34;24.82;101229.63;5073198;28;1013;-29
2022/05/05 06:54:07;;;;;;;;;;;;;;;26.88;25.80;101222.94;5065807;28;1335;-29
2022/05/05 06:56:32;;;;;;;;;;;;;;;26.72;25.70;101233.72;5076052;28;801;-32
2022/05/05 06:58:58;;;;;;;;;;;;;;;26.66;25.73;101240.63;5049893;28;1082;-34
2022/05/05 07:06:51;;;;;;;;;;;;;;;26.56;25.45;101248.88;5063155;28;674;-30
2022/05/05 07:12:00;;;;;;;;;;;;;;;26.73;25.07;101244.34;5063285;28;1453;-32
2022/05/05 07:14:25;;;;;;;;;;;;;;;26.80;25.41;101241.84;5072774;28;1453;-30
2022/05/05 07:16:51;;;;;;;;;;;;;;;26.83;24.72;101243.34;5068218;28;785;-31
2022/05/05 07:19:16;;;;;;;;;;;;;;;26.72;24.10;101247.22;5057798;28;884;-31
2022/05/05 07:21:41;;;;;;;;;;;;;;;26.68;23.12;101248.56;5075047;28;1266;-32
2022/05/05 07:24:07;;;;;;;;;;;;;;;26.55;22.17;101249.06;5073944;28;1890;-31
2022/05/05 07:26:32;;;;;;;;;;;;;;;26.58;21.32;101248.72;5063018;28;813;-31
2022/05/05 07:28:57;;;;;;;;;;;;;;;26.68;20.90;101249.41;5056174;28;927;-31
2022/05/05 07:31:23;;;;;;;;;;;;;;;26.97;20.96;101252.63;5056206;28;735;-31
2022/05/05 07:33:48;;;;;;;;;;;;;;;27.82;20.29;101255.00;5037897;28;1068;-31
2022/05/05 07:36:13;;;;;;;;;;;;;;;26.84;21.14;101250.44;5069128;28;1045;-33
2022/05/05 07:38:38;;;;;;;;;;;;;;;26.66;20.90;101246.03;5064828;28;1170;-31
2022/05/05 07:41:04;;;;;;;;;;;;;;;27.65;20.58;101255.03;5072449;28;1353;-33
2022/05/05 07:43:29;;;;;;;;;;;;;;;27.10;19.84;101249.44;5059252;28;1953;-35
2022/05/05 07:45:54;;;;;;;;;;;;;;;26.74;19.36;101258.72;5066221;28;830;-35
2022/05/05 07:48:20;;;;;;;;;;;;;;;26.74;18.89;101251.44;5075311;28;1046;-34
2022/05/05 07:50:47;;;;;;;;;;;;;;;26.72;18.89;101250.78;5066019;28;1030;-33
2022/05/05 07:53:12;;;;;;;;;;;;;;;26.82;18.46;101263.25;5055785;28;829;-34
2022/05/05 07:55:38;;;;;;;;;;;;;;;26.65;18.79;101272.19;5056136;28;781;-33
2022/05/05 07:58:03;;;;;;;;;;;;;;;26.83;18.56;101251.44;5055827;28;794;-35
2022/05/05 08:00:28;;;;;;;;;;;;;;;27.45;17.68;101247.34;5055095;28;985;-33
2022/05/05 08:02:53;;;;;;;;;;;;;;;26.76;18.14;101245.88;5063044;28;1273;-31
2022/05/05 08:05:19;;;;;;;;;;;;;;;26.74;18.10;101256.81;5076656;28;1914;-32
2022/05/05 08:07:45;;;;;;;;;;;;;;;26.65;18.24;101239.81;5060282;28;815;-31
2022/05/05 08:10:10;;;;;;;;;;;;;;;26.71;18.17;101250.94;5073166;28;747;-31
2022/05/05 08:12:36;;;;;;;;;;;;;;;26.71;18.28;101245.56;5079435;28;908;-31
2022/05/05 08:15:02;;;;;;;;;;;;;;;26.71;18.03;101262.56;5066614;28;1093;-29
2022/05/05 08:17:28;;;;;;;;;;;;;;;26.73;18.32;101262.41;5077200;28;1188;-32
2022/05/05 08:19:53;;;;;;;;;;;;;;;27.25;17.51;101246.88;5076992;28;943;-31
2022/05/05 08:22:19;;;;;;;;;;;;;;;26.80;18.36;101260.72;5068276;28;793;-33
2022/05/05 08:30:11;;;;;;;;;;;;;;;26.71;18.31;101242.84;5067806;28;1080;-30
2022/05/05 08:32:37;;;;;;;;;;;;;;;26.89;18.38;101250.78;5079080;28;988;-32
2022/05/05 08:35:02;;;;;;;;;;;;;;;26.82;18.28;101237.13;5076901;28;887;-33
2022/05/05 08:37:27;;;;;;;;;;;;;;;26.88;18.39;101239.13;5059896;28;746;-32
2022/05/05 08:39:53;;;;;;;;;;;;;;;26.95;18.79;101249.25;5059794;28;1153;-31
2022/05/05 08:42:18;;;;;;;;;;;;;;;27.18;18.55;101243.16;5068045;28;982;-33
2022/05/05 08:44:43;;;;;;;;;;;;;;;27.23;19.11;101246.19;5070937;28;1969;-33
2022/05/05 08:47:09;;;;;;;;;;;;;;;27.18;18.86;101257.53;5075189;28;1330;-34
2022/05/05 08:49:35;;;;;;;;;;;;;;;27.12;18.82;101245.56;5067618;28;885;-32
2022/05/05 08:52:00;;;;;;;;;;;;;;;26.92;19.13;101244.19;5071602;28;1406;-35
2022/05/05 08:54:26;;;;;;;;;;;;;;;27.00;19.05;101244.19;5064995;28;1382;-34
2022/05/05 08:56:51;;;;;;;;;;;;;;;26.90;19.04;101242.50;5053419;28;1376;-32
2022/05/05 08:59:17;;;;;;;;;;;;;;;27.10;18.98;101250.28;5071142;28;962;-36
2022/05/05 09:01:42;;;;;;;;;;;;;;;26.99;18.64;101247.91;5077607;28;1100;-31
2022/05/05 09:04:08;;;;;;;;;;;;;;;27.09;18.50;101264.78;5077389;28;1969;-31
2022/05/05 09:07:00;;;;;;;;;;;;;;;27.04;18.86;101256.38;5073272;28;1282;-30
2022/05/05 09:09:28;;;;;;;;;;;;;;;27.53;18.38;101254.56;5061670;28;1630;-29
2022/05/05 09:12:10;;;;;;;;;;;;;;;27.87;17.81;101269.69;5071006;28;1076;-31
2022/05/05 09:14:53;;;;;;;;;;;;;;;27.35;18.08;101244.84;5073556;28;806;-33
2022/05/05 09:17:19;;;;;;;;;;;;;;;27.33;18.58;101281.97;5073851;28;1370;-28
2022/05/05 09:19:48;;;;;;;;;;;;;;;26.72;19.99;101261.56;5070454;28;805;-28
2022/05/05 09:22:13;;;;;;;;;;;;;;;26.46;20.22;101230.16;5046276;28;839;-28
2022/05/05 09:24:43;;;;;;;;;;;;;;;26.62;19.66;101252.78;5070837;28;1898;-32
2022/05/05 09:27:15;;;;;;;;;;;;;;;26.59;19.84;101280.94;5077470;28;861;-29
2022/05/05 09:29:41;;;;;;;;;;;;;;;26.73;20.01;101255.16;5077025;28;1127;-34
2022/05/05 09:32:10;;;;;;;;;;;;;;;27.67;19.28;101260.28;5059061;28;1152;-31
2022/05/05 09:34:35;;;;;;;;;;;;;;;27.41;20.39;101251.38;5066979;28;1276;-30
2022/05/05 09:37:19;;;;;;;;;;;;;;;27.14;21.50;101256.19;5059904;28;806;-31
2022/05/05 09:39:44;;;;;;;;;;;;;;;27.38;25.80;101252.59;5057583;28;740;-32
2022/05/05 09:42:10;;;;;;;;;;;;;;;27.36;25.47;101257.31;5057729;28;949;-31
2022/05/05 09:44:45;;;;;;;;;;;;;;;27.33;25.71;101257.66;5059367;28;1950;-31
2022/05/05 09:47:16;;;;;;;;;;;;;;;27.43;26.59;101264.72;5075581;28;873;-31
2022/05/05 09:49:42;;;;;;;;;;;;;;;27.25;26.24;101263.09;5074488;28;847;-31
2022/05/05 09:57:41;;;;;;;;;;;;;;;26.93;21.64;101262.06;5044896;28;755;-32
2022/05/05 10:00:58;;;;;;;;;;;;;;;26.70;22.37;101251.94;5054740;28;1140;-31
2022/05/05 10:05:40;;;;;;;;;;;;;;;27.75;21.38;101263.81;5049925;28;1978;-30
2022/05/05 10:08:06;;;;;;;;;;;;;;;27.81;21.64;101258.75;5050173;28;1227;-33
2022/05/05 10:10:32;;;;;;;;;;;;;;;27.56;22.25;101250.69;5064263;28;1105;-34
2022/05/05 10:12:57;;;;;;;;;;;;;;;27.57;22.72;101250.50;5076307;28;1309;-34
2022/05/05 10:15:22;;;;;;;;;;;;;;;27.89;22.11;101257.84;5056535;28;1422;-33
2022/05/05 10:17:48;;;;;;;;;;;;;;;27.81;22.03;101261.44;5058476;28;1171;-34
2022/05/05 10:20:14;;;;;;;;;;;;;;;27.94;22.31;101260.88;5075886;28;1168;-34
2022/05/05 10:22:55;;;;;;;;;;;;;;;27.67;22.77;101262.97;5057328;28;818;-31
2022/05/05 10:25:22;;;;;;;;;;;;;;;27.84;22.47;101263.78;5052461;28;1894;-30
2022/05/05 10:27:48;;;;;;;;;;;;;;;27.64;22.72;101264.19;5076149;28;1123;-33
2022/05/05 10:30:15;;;;;;;;;;;;;;;27.69;22.58;101264.53;5068331;28;1263;-34
2022/05/05 10:32:40;;;;;;;;;;;;;;;27.84;22.88;101264.63;5073800;28;965;-30
2022/05/05 10:35:12;;;;;;;;;;;;;;;27.76;22.51;101251.13;5072277;28;1172;-34
2022/05/05 10:37:37;;;;;;;;;;;;;;;27.76;22.52;101248.44;5070013;28;904;-34
2022/05/05 10:40:06;;;;;;;;;;;;;;;27.70;22.91;101263.50;5061220;28;1499;-31
2022/05/05 10:42:40;;;;;;;;;;;;;;;27.88;22.98;101259.69;5065973;28;1686;-35
2022/05/05 10:45:15;;;;;;;;;;;;;;;28.32;22.45;101265.56;5074514;28;1894;-34
2022/05/05 10:47:57;;;;;;;;;;;;;;;27.84;22.82;101275.44;5075269;28;1116;-33
2022/05/05 10:50:28;;;;;;;;;;;;;;;26.82;24.81;101271.34;5064273;28;1270;-34
2022/05/05 10:52:54;;;;;;;;;;;;;;;27.05;23.54;101276.94;5069625;28;1016;-32
2022/05/05 10:55:24;;;;;;;;;;;;;;;26.57;24.33;101268.63;5068422;28;1223;-38
2022/05/05 10:57:49;;;;;;;;;;;;;;;26.20;25.43;101274.25;5076050;28;1210;-34
2022/05/05 11:00:14;;;;;;;;;;;;;;;25.26;26.59;101270.41;5075808;28;1305;-34
2022/05/05 11:02:58;;;;;;;;;;;;;;;24.62;27.89;101274.06;5073060;28;1207;-35
2022/05/05 11:05:27;;;;;;;;;;;;;;;26.37;25.19;101277.03;5071812;28;1938;-34
2022/05/05 11:08:19;;;;;;;;;;;;;;;27.13;24.14;101274.25;5075599;28;1173;-31
2022/05/05 11:10:48;;;;;;;;;;;;;;;25.23;26.09;101269.88;5060820;28;1679;-35
2022/05/05 11:13:32;;;;;;;;;;;;;;;27.33;23.60;101294.63;5073965;28;1250;-34
2022/05/05 11:22:11;;;;;;;;;;;;;;;24.51;26.08;101293.09;5063438;28;1065;-36
2022/05/05 11:24:41;;;;;;;;;;;;;;;23.62;27.16;101298.88;5056527;28;1890;-34
2022/05/05 11:27:13;;;;;;;;;;;;;;;23.81;27.77;101292.59;5046818;28;1068;-34
2022/05/05 11:29:39;;;;;;;;;;;;;;;23.68;27.70;101298.28;5072179;28;1551;-37
2022/05/05 11:32:07;;;;;;;;;;;;;;;23.83;27.39;101301.34;5075296;28;1092;-36
2022/05/05 11:34:33;;;;;;;;;;;;;;;24.13;27.78;101310.13;5073100;28;1282;-37
2022/05/05 11:37:01;;;;;;;;;;;;;;;24.27;27.92;101303.44;5068714;28;921;-33
2022/05/05 11:39:36;;;;;;;;;;;;;;;25.13;27.12;101304.97;5065148;28;788;-37
2022/05/05 11:42:02;;;;;;;;;;;;;;;25.39;26.33;101298.78;5059881;28;837;-34
2022/05/05 11:44:28;;;;;;;;;;;;;;;25.19;26.40;101301.66;5056334;28;1906;-32
2022/05/05 11:46:54;;;;;;;;;;;;;;;26.60;25.04;101298.84;5056278;28;838;-32
2022/05/05 11:49:19;;;;;;;;;;;;;;;26.92;24.60;101303.56;5068747;28;1164;-33
2022/05/05 11:51:45;;;;;;;;;;;;;;;27.20;24.61;101309.50;5071267;28;1251;-35
2022/05/05 11:54:11;;;;;;;;;;;;;;;28.50;22.95;101314.03;5072982;28;770;-34
2022/05/05 11:56:37;;;;;;;;;;;;;;;26.98;24.87;101311.00;5060465;28;1097;-35
2022/05/05 12:01:59;;;;;;;;;;;;;;;26.23;26.16;101305.44;5069549;28;1096;-30
2022/05/05 12:04:24;;;;;;;;;;;;;;;26.25;25.65;101303.44;5072744;28;1910;-33
2022/05/05 12:06:50;;;;;;;;;;;;;;;24.37;26.89;101300.72;5073187;28;1199;-36
2022/05/05 12:09:15;;;;;;;;;;;;;;;23.51;28.57;101306.09;5074987;28;918;-34
2022/05/05 12:11:42;;;;;;;;;;;;;;;23.96;28.15;101312.59;5066976;28;1418;-36
2022/05/05 12:14:09;;;;;;;;;;;;;;;23.91;28.63;101304.16;5063905;28;1163;-35
2022/05/05 12:16:34;;;;;;;;;;;;;;;22.75;31.43;101308.53;5063976;28;1116;-32
2022/05/05 12:19:00;;;;;;;;;;;;;;;24.80;28.45;101314.44;5069242;28;985;-33
2022/05/05 12:21:26;;;;;;;;;;;;;;;24.91;28.58;101320.59;5078119;28;1226;-34
2022/05/05 12:24:00;;;;;;;;;;;;;;;25.19;28.50;101317.81;5065580;28;1943;-32
2022/05/05 12:26:29;;;;;;;;;;;;;;;26.37;26.79;101315.66;5073753;28;1107;-31
2022/05/05 12:28:56;;;;;;;;;;;;;;;26.63;25.86;101322.78;5069007;28;1006;-34
2022/05/05 12:31:21;;;;;;;;;;;;;;;26.86;25.47;101311.34;5066695;28;1449;-32
2022/05/05 12:33:47;;;;;;;;;;;;;;;26.96;25.29;101315.75;5067426;28;856;-34
2022/05/05 12:36:13;;;;;;;;;;;;;;;27.05;25.55;101316.59;5063136;28;999;-35
2022/05/05 12:38:38;;;;;;;;;;;;;;;27.07;25.37;101315.44;5074951;28;811;-32
2022/05/05 12:41:10;;;;;;;;;;;;;;;27.14;25.38;101311.03;5074383;28;1020;-34
2022/05/05 12:43:35;;;;;;;;;;;;;;;27.38;25.24;101319.28;5067528;28;1957;-31
2022/05/05 12:46:01;;;;;;;;;;;;;;;27.37;25.19;101314.91;5055760;28;908;-31
2022/05/05 12:48:27;;;;;;;;;;;;;;;27.43;25.06;101314.22;5056071;28;842;-32
2022/05/05 12:50:53;;;;;;;;;;;;;;;27.34;25.05;101323.34;5069453;28;1014;-33
2022/05/05 13:01:34;;;;;;;;;;;;;;;27.25;26.37;101320.66;5058877;28;1118;-31
2022/05/05 13:04:06;;;;;;;;;;;;;;;27.17;25.12;101331.47;5060375;28;1965;-32
2022/05/05 13:06:31;;;;;;;;;;;;;;;26.87;25.48;101318.44;5058997;28;810;-34
2022/05/05 13:08:58;;;;;;;;;;;;;;;26.96;25.18;101324.66;5066904;28;1040;-34
2022/05/05 13:11:23;;;;;;;;;;;;;;;27.04;25.43;101318.47;5073266;28;1384;-31
2022/05/05 13:13:49;;;;;;;;;;;;;;;27.01;25.17;101321.44;5077794;28;1370;-31
2022/05/05 13:16:14;;;;;;;;;;;;;;;27.31;25.31;101327.22;5077381;28;1374;-30
2022/05/05 13:18:40;;;;;;;;;;;;;;;27.31;25.46;101334.50;5072112;28;1184;-33
2022/05/05 13:21:05;;;;;;;;;;;;;;;27.10;25.32;101327.75;5075406;28;1168;-30
2022/05/05 13:23:30;;;;;;;;;;;;;;;26.93;25.57;101332.25;5071783;28;1968;-32
2022/05/05 13:25:56;;;;;;;;;;;;;;;26.93;25.30;101329.56;5071334;28;1339;-36
2022/05/05 13:28:21;;;;;;;;;;;;;;;26.93;25.59;101333.09;5073915;28;1101;-31
2022/05/05 13:30:46;;;;;;;;;;;;;;;27.10;25.20;101338.53;5077933;28;1305;-31
2022/05/05 13:33:11;;;;;;;;;;;;;;;27.16;25.46;101340.56;5072321;28;1225;-31
2022/05/05 13:35:37;;;;;;;;;;;;;;;27.04;25.32;101339.22;5065970;28;864;-31
2022/05/05 13:38:02;;;;;;;;;;;;;;;27.06;25.26;101340.72;5058700;28;818;-33
2022/05/05 13:40:27;;;;;;;;;;;;;;;26.96;24.69;101335.47;5063832;28;1387;-34